createdAt,value
2018-10-07T00:01:36.140Z,93869.12
2018-10-07T00:04:04.519Z,93871.00
2018-10-07T00:06:33.151Z,93869.59
2018-10-07T00:09:01.328Z,93865.03
2018-10-07T00:11:29.565Z,93858.33
2018-10-07T00:13:57.724Z,93850.85
2018-10-07T00:16:25.926Z,93841.81
2018-10-07T00:18:54.014Z,93839.88
2018-10-07T00:21:22.132Z,93838.02
2018-10-07T00:23:50.326Z,93838.12
2018-10-07T00:26:18.588Z,93835.05
2018-10-07T00:28:46.729Z,93834.66
2018-10-07T00:31:15.032Z,93836.97
2018-10-07T00:33:43.219Z,93829.92
2018-10-07T00:36:11.388Z,93831.68
2018-10-07T00:38:39.498Z,93824.47
2018-10-07T00:41:07.761Z,93819.16
2018-10-07T00:43:35.952Z,93818.84
2018-10-07T00:46:04.287Z,93810.08
2018-10-07T00:48:32.535Z,93810.51
2018-10-07T00:51:00.876Z,93815.16
2018-10-07T00:53:28.951Z,93808.72
2018-10-07T00:55:57.200Z,93809.09
2018-10-07T00:58:25.387Z,93812.20
2018-10-07T01:00:53.514Z,93803.67
2018-10-07T01:03:21.637Z,93804.70
2018-10-07T01:05:49.836Z,93800.45
2018-10-07T01:08:18.072Z,93800.73
2018-10-07T01:10:46.257Z,93804.36
2018-10-07T01:13:14.390Z,93802.29
2018-10-07T01:15:43.559Z,93795.13
2018-10-07T01:18:11.703Z,93792.53
2018-10-07T01:20:39.897Z,93793.69
2018-10-07T01:23:08.279Z,93794.92
2018-10-07T01:25:36.421Z,93788.30
2018-10-07T01:28:04.587Z,93792.80
2018-10-07T01:30:32.823Z,93792.59
2018-10-07T01:33:00.924Z,93790.65
2018-10-07T01:35:29.055Z,93793.25
2018-10-07T01:37:57.179Z,93799.42
2018-10-07T01:40:25.414Z,93790.50
2018-10-07T01:42:53.578Z,93795.34
2018-10-07T01:45:21.700Z,93798.70
2018-10-07T01:47:49.867Z,93793.64
2018-10-07T01:50:17.993Z,93787.77
2018-10-07T01:52:46.218Z,93790.34
2018-10-07T01:55:14.318Z,93784.52
2018-10-07T01:57:42.415Z,93788.47
2018-10-07T02:00:10.576Z,93788.58
2018-10-07T02:02:38.710Z,93786.98
2018-10-07T02:05:06.886Z,93786.00
2018-10-07T02:07:35.202Z,93787.39
2018-10-07T02:10:03.306Z,93782.50
2018-10-07T02:12:31.473Z,93780.91
2018-10-07T02:14:59.591Z,93781.36
2018-10-07T02:17:27.857Z,93784.61
2018-10-07T02:19:56.140Z,93781.16
2018-10-07T02:22:24.350Z,93776.67
2018-10-07T02:24:52.506Z,93780.80
2018-10-07T02:27:20.519Z,93776.16
2018-10-07T02:29:48.664Z,93778.22
2018-10-07T02:32:16.891Z,93776.67
2018-10-07T02:34:45.023Z,93769.56
2018-10-07T02:37:13.185Z,93773.43
2018-10-07T02:39:41.372Z,93772.70
2018-10-07T02:42:09.497Z,93772.95
2018-10-07T02:44:37.693Z,93771.51
2018-10-07T02:47:06.390Z,93763.77
2018-10-07T02:49:34.510Z,93764.45
2018-10-07T02:52:02.649Z,93764.20
2018-10-07T02:54:30.885Z,93767.03
2018-10-07T02:56:59.076Z,93760.36
2018-10-07T02:59:27.560Z,93760.87
2018-10-07T03:01:55.685Z,93766.02
2018-10-07T03:04:23.923Z,93761.25
2018-10-07T03:06:52.125Z,93758.94
2018-10-07T03:09:20.194Z,93754.51
2018-10-07T03:11:48.383Z,93763.47
2018-10-07T03:14:16.543Z,93763.05
2018-10-07T03:16:44.762Z,93757.30
2018-10-07T03:19:13.068Z,93757.05
2018-10-07T03:21:41.260Z,93761.03
2018-10-07T03:24:09.464Z,93762.50
2018-10-07T03:26:38.011Z,93765.45
2018-10-07T03:29:06.546Z,93769.59
2018-10-07T03:31:34.718Z,93770.42
2018-10-07T03:34:02.985Z,93770.00
2018-10-07T03:36:31.108Z,93763.34
2018-10-07T03:38:59.274Z,93764.49
2018-10-07T03:41:27.637Z,93764.85
2018-10-07T03:43:56.009Z,93767.70
2018-10-07T03:46:24.201Z,93770.33
2018-10-07T03:48:52.366Z,93768.07
2018-10-07T03:51:20.629Z,93769.36
2018-10-07T03:53:48.766Z,93769.31
2018-10-07T03:56:16.884Z,93768.72
2018-10-07T03:58:45.008Z,93771.92
2018-10-07T04:01:13.440Z,93773.39
2018-10-07T04:03:41.743Z,93769.53
2018-10-07T04:06:09.920Z,93762.60
2018-10-07T04:08:38.165Z,93765.34
2018-10-07T04:11:06.692Z,93768.70
2018-10-07T04:13:35.008Z,93761.82
2018-10-07T04:16:03.339Z,93763.61
2018-10-07T04:18:31.573Z,93757.08
2018-10-07T04:21:00.169Z,93760.61
2018-10-07T04:23:28.341Z,93755.70
2018-10-07T04:25:56.564Z,93762.11
2018-10-07T04:28:24.636Z,93758.20
2018-10-07T04:30:52.819Z,93760.92
2018-10-07T04:33:20.884Z,93771.42
2018-10-07T04:35:48.895Z,93770.45
2018-10-07T04:38:17.065Z,93766.35
2018-10-07T04:40:45.205Z,93769.02
2018-10-07T04:43:13.268Z,93773.63
2018-10-07T04:45:41.276Z,93776.92
2018-10-07T04:48:09.717Z,93769.94
2018-10-07T04:50:37.830Z,93766.23
2018-10-07T04:53:06.548Z,93772.11
2018-10-07T04:55:34.697Z,93770.68
2018-10-07T04:58:02.734Z,93773.99
2018-10-07T05:00:30.805Z,93777.95
2018-10-07T05:02:58.898Z,93780.99
2018-10-07T05:05:27.399Z,93775.80
2018-10-07T05:07:55.636Z,93774.97
2018-10-07T05:10:58.778Z,93774.41
2018-10-07T05:13:32.366Z,93762.20
2018-10-07T05:16:03.002Z,93767.80
2018-10-07T05:18:32.235Z,93770.09
2018-10-07T05:21:00.762Z,93759.13
2018-10-07T05:23:29.058Z,93755.41
2018-10-07T05:25:57.385Z,93756.26
2018-10-07T05:28:27.806Z,93753.75
2018-10-07T05:30:56.449Z,93753.08
2018-10-07T05:33:24.983Z,93756.20
2018-10-07T05:35:53.206Z,93753.25
2018-10-07T05:38:22.078Z,93764.48
2018-10-07T05:40:51.503Z,93764.75
2018-10-07T05:43:21.092Z,93761.27
2018-10-07T05:45:51.616Z,93765.06
2018-10-07T05:48:20.073Z,93771.84
2018-10-07T05:50:48.820Z,93765.58
2018-10-07T05:53:18.112Z,93763.92
2018-10-07T05:55:46.852Z,93763.30
2018-10-07T05:58:15.679Z,93765.69
2018-10-07T06:00:44.852Z,93762.63
2018-10-07T06:03:20.882Z,93764.59
2018-10-07T06:05:51.152Z,93761.25
2018-10-07T06:08:23.227Z,93764.68
2018-10-07T06:10:52.337Z,93767.56
2018-10-07T06:13:21.066Z,93757.87
2018-10-07T06:15:49.748Z,93757.96
2018-10-07T06:18:19.189Z,93749.63
2018-10-07T06:20:48.286Z,93757.66
2018-10-07T06:23:16.957Z,93754.23
2018-10-07T06:25:46.354Z,93752.27
2018-10-07T06:28:15.397Z,93751.86
2018-10-07T06:30:44.484Z,93756.86
2018-10-07T06:33:14.880Z,93753.52
2018-10-07T06:35:44.040Z,93761.97
2018-10-07T06:38:12.738Z,93764.77
2018-10-07T06:40:41.793Z,93762.17
2018-10-07T06:43:10.542Z,93760.50
2018-10-07T06:45:39.213Z,93754.45
2018-10-07T06:48:11.569Z,93758.55
2018-10-07T06:50:40.782Z,93758.36
2018-10-07T06:53:13.163Z,93753.75
2018-10-07T06:55:41.774Z,93758.53
2018-10-07T06:58:11.065Z,93752.20
2018-10-07T07:00:39.710Z,93754.62
2018-10-07T07:03:08.542Z,93755.39
2018-10-07T07:05:40.183Z,93753.59
2018-10-07T07:08:10.809Z,93754.42
2018-10-07T07:10:39.473Z,93757.41
2018-10-07T07:13:08.000Z,93758.27
2018-10-07T07:15:36.439Z,93760.95
2018-10-07T07:18:04.978Z,93755.14
2018-10-07T07:20:33.417Z,93753.53
2018-10-07T07:23:01.754Z,93751.78
2018-10-07T07:25:30.152Z,93745.91
2018-10-07T07:27:58.608Z,93751.21
2018-10-07T07:30:27.266Z,93745.72
2018-10-07T07:32:55.978Z,93743.42
2018-10-07T07:35:24.358Z,93744.84
2018-10-07T07:37:52.967Z,93727.97
2018-10-07T07:40:21.388Z,93726.95
2018-10-07T07:42:49.799Z,93731.30
2018-10-07T07:45:18.325Z,93730.89
2018-10-07T07:47:46.757Z,93729.14
2018-10-07T07:50:15.335Z,93722.33
2018-10-07T07:52:43.963Z,93727.36
2018-10-07T07:55:12.506Z,93726.88
2018-10-07T07:57:41.103Z,93728.36
2018-10-07T08:00:09.594Z,93722.55
2018-10-07T08:02:38.991Z,93725.23
2018-10-07T08:05:07.552Z,93723.54
2018-10-07T08:07:36.450Z,93720.73
2018-10-07T08:10:05.609Z,93720.98
2018-10-07T08:12:34.843Z,93718.66
2018-10-07T08:15:03.656Z,93711.32
2018-10-07T08:17:34.253Z,93707.05
2018-10-07T08:20:02.835Z,93705.22
2018-10-07T08:22:32.414Z,93704.02
2018-10-07T08:25:00.961Z,93703.88
2018-10-07T08:27:29.752Z,93697.03
2018-10-07T08:29:58.092Z,93694.28
2018-10-07T08:32:26.443Z,93691.59
2018-10-07T08:34:54.791Z,93697.63
2018-10-07T08:37:23.166Z,93683.73
2018-10-07T08:39:51.422Z,93684.05
2018-10-07T08:42:19.811Z,93683.75
2018-10-07T08:44:48.124Z,93687.05
2018-10-07T08:47:16.582Z,93681.06
2018-10-07T08:49:45.111Z,93674.34
2018-10-07T08:52:14.044Z,93672.56
2018-10-07T08:54:42.433Z,93673.15
2018-10-07T08:57:11.369Z,93678.69
2018-10-07T08:59:39.993Z,93665.30
2018-10-07T09:02:08.481Z,93663.75
2018-10-07T09:04:37.171Z,93664.78
2018-10-07T09:07:05.403Z,93659.70
2018-10-07T09:09:33.669Z,93660.98
2018-10-07T09:12:01.975Z,93653.90
2018-10-07T09:14:30.573Z,93655.33
2018-10-07T09:16:58.971Z,93654.19
2018-10-07T09:19:27.386Z,93648.85
2018-10-07T09:21:55.789Z,93646.26
2018-10-07T09:24:24.221Z,93632.97
2018-10-07T09:26:53.027Z,93643.31
2018-10-07T09:29:21.622Z,93639.80
2018-10-07T09:31:50.879Z,93632.29
2018-10-07T09:34:19.476Z,93630.80
2018-10-07T09:36:48.011Z,93623.95
2018-10-07T09:39:16.443Z,93632.78
2018-10-07T09:41:44.927Z,93621.58
2018-10-07T09:44:13.462Z,93625.62
2018-10-07T09:46:42.081Z,93620.30
2018-10-07T09:49:10.780Z,93613.51
2018-10-07T09:51:39.142Z,93611.39
2018-10-07T09:54:07.503Z,93618.27
2018-10-07T09:56:36.274Z,93604.50
2018-10-07T09:59:05.597Z,93599.68
2018-10-07T10:01:34.512Z,93596.03
2018-10-07T10:04:03.080Z,93597.16
2018-10-07T10:06:32.071Z,93591.50
2018-10-07T10:09:00.813Z,93589.65
2018-10-07T10:11:29.324Z,93582.63
2018-10-07T10:13:57.671Z,93580.05
2018-10-07T10:16:33.684Z,93568.82
2018-10-07T10:19:04.419Z,93565.98
2018-10-07T10:21:37.722Z,93569.98
2018-10-07T10:24:16.403Z,93568.06
2018-10-07T10:29:02.102Z,93554.61
2018-10-07T10:31:43.096Z,93551.06
2018-10-07T10:34:14.731Z,93540.81
2018-10-07T10:36:49.941Z,93537.96
2018-10-07T10:39:54.459Z,93536.44
2018-10-07T10:43:01.549Z,93536.13
2018-10-07T10:45:33.535Z,93526.57
2018-10-07T10:48:18.778Z,93519.04
2018-10-07T10:51:53.166Z,93521.79
2018-10-07T10:54:31.503Z,93517.31
2018-10-07T10:57:05.484Z,93509.09
2018-10-07T10:59:41.828Z,93508.06
2018-10-07T11:02:30.005Z,93504.91
2018-10-07T11:05:09.508Z,93500.50
2018-10-07T11:08:00.176Z,93491.08
2018-10-07T11:10:38.173Z,93488.02
2018-10-07T11:13:25.182Z,93489.94
2018-10-07T11:16:04.560Z,93484.88
2018-10-07T11:21:56.222Z,93479.26
2018-10-07T11:24:34.828Z,93476.02
2018-10-07T11:27:08.948Z,93470.41
2018-10-07T11:29:46.316Z,93469.22
2018-10-07T11:34:27.139Z,93468.70
2018-10-07T11:38:04.305Z,93461.95
2018-10-07T11:40:44.806Z,93465.83
2018-10-07T11:43:22.677Z,93464.20
2018-10-07T11:47:59.053Z,93464.95
2018-10-07T11:51:04.084Z,93451.94
2018-10-07T11:54:10.465Z,93454.44
2018-10-07T11:56:39.246Z,93454.73
2018-10-07T11:59:07.817Z,93448.03
2018-10-07T12:01:36.463Z,93452.81
2018-10-07T12:04:04.969Z,93442.47
2018-10-07T12:06:33.436Z,93439.48
2018-10-07T12:09:02.096Z,93440.39
2018-10-07T12:11:30.494Z,93431.34
2018-10-07T12:13:59.007Z,93430.67
2018-10-07T12:16:27.777Z,93430.00
2018-10-07T12:18:56.573Z,93430.39
2018-10-07T12:21:25.582Z,93425.94
2018-10-07T12:23:54.453Z,93422.70
2018-10-07T12:26:22.931Z,93424.16
2018-10-07T12:28:51.431Z,93412.95
2018-10-07T12:31:19.657Z,93413.45
2018-10-07T12:33:48.826Z,93409.69
2018-10-07T12:36:17.595Z,93402.55
2018-10-07T12:38:46.273Z,93402.27
2018-10-07T12:41:15.119Z,93398.88
2018-10-07T12:43:44.540Z,93401.36
2018-10-07T12:46:13.294Z,93403.02
2018-10-07T12:48:42.597Z,93396.84
2018-10-07T12:51:11.707Z,93389.70
2018-10-07T12:53:41.055Z,93394.16
2018-10-07T12:56:10.561Z,93393.94
2018-10-07T12:58:39.994Z,93392.30
2018-10-07T13:01:09.813Z,93386.66
2018-10-07T13:03:39.739Z,93379.53
2018-10-07T13:06:08.845Z,93384.32
2018-10-07T13:08:38.264Z,93385.53
2018-10-07T13:11:08.211Z,93380.96
2018-10-07T13:13:37.929Z,93380.38
2018-10-07T13:16:07.114Z,93375.05
2018-10-07T13:18:37.251Z,93372.83
2018-10-07T13:21:07.656Z,93366.48
2018-10-07T13:23:37.184Z,93364.78
2018-10-07T13:26:06.186Z,93365.32
2018-10-07T13:28:35.750Z,93363.44
2018-10-07T13:31:05.334Z,93358.39
2018-10-07T13:33:34.481Z,93362.28
2018-10-07T13:36:03.887Z,93364.81
2018-10-07T13:38:32.710Z,93360.86
2018-10-07T13:41:02.049Z,93363.34
2018-10-07T13:43:30.923Z,93359.93
2018-10-07T13:46:00.206Z,93357.72
2018-10-07T13:48:28.918Z,93356.23
2018-10-07T13:50:57.670Z,93351.75
2018-10-07T13:53:26.570Z,93358.58
2018-10-07T13:55:55.272Z,93358.59
2018-10-07T13:58:24.908Z,93356.59
2018-10-07T14:00:54.105Z,93355.05
2018-10-07T14:03:22.643Z,93353.48
2018-10-07T14:05:51.268Z,93351.00
2018-10-07T14:08:19.781Z,93351.36
2018-10-07T14:10:48.288Z,93346.05
2018-10-07T14:13:16.971Z,93341.78
2018-10-07T14:15:45.854Z,93344.45
2018-10-07T14:18:14.058Z,93340.77
2018-10-07T14:20:42.319Z,93341.22
2018-10-07T14:23:10.627Z,93339.88
2018-10-07T14:25:38.941Z,93342.66
2018-10-07T14:28:08.341Z,93345.31
2018-10-07T14:30:36.625Z,93337.90
2018-10-07T14:33:05.207Z,93336.73
2018-10-07T14:35:33.305Z,93337.83
2018-10-07T14:38:01.670Z,93329.77
2018-10-07T14:40:30.008Z,93335.27
2018-10-07T14:42:58.209Z,93340.70
2018-10-07T14:45:26.426Z,93331.62
2018-10-07T14:47:54.999Z,93340.50
2018-10-07T14:50:23.272Z,93344.96
2018-10-07T14:52:51.541Z,93341.47
2018-10-07T14:55:19.881Z,93341.34
2018-10-07T14:57:48.147Z,93346.00
2018-10-07T15:00:16.439Z,93339.36
2018-10-07T15:02:44.679Z,93339.80
2018-10-07T15:05:12.743Z,93332.81
2018-10-07T15:07:41.062Z,93329.94
2018-10-07T15:10:09.769Z,93336.38
2018-10-07T15:12:38.503Z,93336.20
2018-10-07T15:15:07.072Z,93333.81
2018-10-07T15:17:35.431Z,93335.11
2018-10-07T15:20:03.797Z,93342.93
2018-10-07T15:22:32.355Z,93340.11
2018-10-07T15:25:01.674Z,93338.94
2018-10-07T15:27:30.090Z,93342.64
2018-10-07T15:29:58.536Z,93350.01
2018-10-07T15:32:27.229Z,93352.76
2018-10-07T15:34:55.667Z,93348.81
2018-10-07T15:37:24.044Z,93350.28
2018-10-07T15:39:52.693Z,93347.02
2018-10-07T15:42:21.226Z,93354.87
2018-10-07T15:44:49.659Z,93355.67
2018-10-07T15:47:18.257Z,93357.22
2018-10-07T15:49:46.741Z,93348.59
2018-10-07T15:52:15.035Z,93355.37
2018-10-07T15:54:43.801Z,93358.89
2018-10-07T15:57:12.303Z,93357.44
2018-10-07T15:59:40.756Z,93362.25
2018-10-07T16:02:09.348Z,93358.74
2018-10-07T16:04:37.740Z,93360.44
2018-10-07T16:07:06.314Z,93362.59
2018-10-07T16:09:34.587Z,93364.19
2018-10-07T16:12:02.898Z,93361.49
2018-10-07T16:14:31.400Z,93362.45
2018-10-07T16:16:59.971Z,93374.94
2018-10-07T16:19:28.412Z,93376.28
2018-10-07T16:21:56.912Z,93377.13
2018-10-07T16:24:25.343Z,93386.50
2018-10-07T16:26:54.181Z,93390.70
2018-10-07T16:29:23.008Z,93392.81
2018-10-07T16:31:51.647Z,93396.37
2018-10-07T16:34:20.080Z,93396.37
2018-10-07T16:36:48.485Z,93405.55
2018-10-07T16:39:16.998Z,93407.81
2018-10-07T16:41:45.502Z,93401.98
2018-10-07T16:44:14.065Z,93411.85
2018-10-07T16:46:42.416Z,93414.81
2018-10-07T16:49:10.970Z,93415.90
2018-10-07T16:51:39.428Z,93414.70
2018-10-07T16:54:07.794Z,93416.37
2018-10-07T16:56:36.347Z,93420.28
2018-10-07T16:59:04.870Z,93419.81
2018-10-07T17:01:33.255Z,93420.63
2018-10-07T17:04:01.647Z,93426.45
2018-10-07T17:06:30.233Z,93428.25
2018-10-07T17:08:58.820Z,93432.03
2018-10-07T17:11:27.183Z,93435.59
2018-10-07T17:13:55.664Z,93432.58
2018-10-07T17:16:24.211Z,93434.30
2018-10-07T17:18:52.891Z,93432.99
2018-10-07T17:21:21.411Z,93434.28
2018-10-07T17:23:49.805Z,93432.70
2018-10-07T17:26:18.249Z,93437.38
2018-10-07T17:28:51.139Z,93439.44
2018-10-07T17:31:23.512Z,93442.34
2018-10-07T17:33:55.171Z,93451.66
2018-10-07T17:36:27.328Z,93443.97
2018-10-07T17:38:58.375Z,93447.94
2018-10-07T17:41:29.772Z,93452.20
2018-10-07T17:44:01.137Z,93454.88
2018-10-07T17:46:30.179Z,93448.47
2018-10-07T17:49:01.478Z,93456.42
2018-10-07T17:51:30.581Z,93455.36
2018-10-07T17:53:58.925Z,93454.88
2018-10-07T17:56:27.259Z,93459.80
2018-10-07T17:58:55.700Z,93468.86
2018-10-07T18:01:24.155Z,93457.78
2018-10-07T18:03:52.390Z,93461.38
2018-10-07T18:06:21.217Z,93464.30
2018-10-07T18:08:49.964Z,93469.92
2018-10-07T18:11:18.730Z,93472.62
2018-10-07T18:13:47.385Z,93476.36
2018-10-07T18:16:15.792Z,93481.91
2018-10-07T18:18:44.354Z,93476.14
2018-10-07T18:21:12.980Z,93473.05
2018-10-07T18:23:41.334Z,93477.63
2018-10-07T18:26:09.712Z,93474.55
2018-10-07T18:28:39.082Z,93474.17
2018-10-07T18:31:07.777Z,93485.30
2018-10-07T18:33:36.330Z,93492.22
2018-10-07T18:36:05.096Z,93494.06
2018-10-07T18:38:34.386Z,93494.86
2018-10-07T18:41:02.783Z,93497.52
2018-10-07T18:43:31.285Z,93503.93
2018-10-07T18:45:59.581Z,93507.48
2018-10-07T18:48:27.868Z,93509.61
2018-10-07T18:50:56.159Z,93505.20
2018-10-07T18:53:24.318Z,93516.28
2018-10-07T18:55:52.488Z,93515.50
2018-10-07T18:58:20.898Z,93520.55
2018-10-07T19:00:49.083Z,93524.64
2018-10-07T19:03:17.279Z,93521.15
2018-10-07T19:05:45.613Z,93525.81
2018-10-07T19:08:14.528Z,93520.67
2018-10-07T19:10:43.296Z,93522.86
2018-10-07T19:13:12.239Z,93528.83
2018-10-07T19:15:40.538Z,93524.64
2018-10-07T19:18:08.673Z,93527.72
2018-10-07T19:20:37.885Z,93524.27
2018-10-07T19:23:06.300Z,93530.05
2018-10-07T19:25:34.503Z,93528.70
2018-10-07T19:28:02.863Z,93527.75
2018-10-07T19:30:31.617Z,93534.64
2018-10-07T19:32:59.969Z,93536.86
2018-10-07T19:35:28.183Z,93535.84
2018-10-07T19:37:57.327Z,93547.59
2018-10-07T19:40:26.322Z,93540.30
2018-10-07T19:42:54.869Z,93544.71
2018-10-07T19:45:23.434Z,93550.80
2018-10-07T19:47:51.921Z,93551.77
2018-10-07T19:50:20.126Z,93551.30
2018-10-07T19:52:48.954Z,93552.35
2018-10-07T19:55:17.294Z,93554.53
2018-10-07T19:57:47.883Z,93552.41
2018-10-07T20:00:16.256Z,93551.61
2018-10-07T20:02:44.636Z,93548.84
2018-10-07T20:05:12.887Z,93551.80
2018-10-07T20:07:42.064Z,93552.42
2018-10-07T20:10:10.222Z,93554.92
2018-10-07T20:12:38.415Z,93556.02
2018-10-07T20:15:06.649Z,93558.20
2018-10-07T20:17:34.712Z,93558.92
2018-10-07T20:20:02.869Z,93556.79
2018-10-07T20:22:30.985Z,93561.58
2018-10-07T20:24:59.111Z,93552.66
2018-10-07T20:27:27.282Z,93561.57
2018-10-07T20:29:55.591Z,93560.22
2018-10-07T20:32:23.846Z,93562.82
2018-10-07T20:34:52.035Z,93568.63
2018-10-07T20:37:20.134Z,93562.95
2018-10-07T20:39:48.270Z,93572.16
2018-10-07T20:42:16.459Z,93571.92
2018-10-07T20:44:44.502Z,93578.05
2018-10-07T20:47:12.589Z,93584.17
2018-10-07T20:49:40.721Z,93583.10
2018-10-07T20:52:08.947Z,93582.77
2018-10-07T20:54:36.923Z,93583.16
2018-10-07T20:57:05.005Z,93586.82
2018-10-07T20:59:33.097Z,93590.65
2018-10-07T21:02:01.217Z,93597.17
2018-10-07T21:04:29.682Z,93590.50
2018-10-07T21:06:57.890Z,93589.29
2018-10-07T21:09:25.959Z,93587.73
2018-10-07T21:11:54.133Z,93591.23
2018-10-07T21:14:22.187Z,93592.56
2018-10-07T21:16:50.245Z,93593.55
2018-10-07T21:19:18.273Z,93601.45
2018-10-07T21:21:46.521Z,93597.45
2018-10-07T21:24:14.726Z,93601.25
2018-10-07T21:26:42.777Z,93595.48
2018-10-07T21:29:10.846Z,93594.64
2018-10-07T21:31:38.948Z,93593.71
2018-10-07T21:34:07.184Z,93597.33
2018-10-07T21:36:35.219Z,93594.08
2018-10-07T21:39:04.495Z,93599.27
2018-10-07T21:41:32.603Z,93594.24
2018-10-07T21:44:00.628Z,93589.88
2018-10-07T21:46:28.811Z,93593.33
2018-10-07T21:48:56.864Z,93596.47
2018-10-07T21:51:24.921Z,93597.31
2018-10-07T21:53:52.923Z,93595.08
2018-10-07T21:56:21.000Z,93590.80
2018-10-07T21:58:49.178Z,93595.34
2018-10-07T22:01:17.295Z,93595.08
2018-10-07T22:03:45.479Z,93589.89
2018-10-07T22:06:13.728Z,93593.36
2018-10-07T22:08:41.882Z,93585.47
2018-10-07T22:11:10.046Z,93588.70
2018-10-07T22:13:38.225Z,93584.45
2018-10-07T22:16:06.387Z,93582.97
2018-10-07T22:18:34.594Z,93577.03
2018-10-07T22:21:02.714Z,93577.03
2018-10-07T22:23:30.910Z,93579.23
2018-10-07T22:25:59.236Z,93569.88
2018-10-07T22:28:27.417Z,93575.98
2018-10-07T22:30:55.472Z,93581.09
2018-10-07T22:33:23.510Z,93581.09
2018-10-07T22:35:51.598Z,93573.94
2018-10-07T22:38:19.573Z,93578.93
2018-10-07T22:40:47.881Z,93585.49
2018-10-07T22:43:15.976Z,93587.84
2018-10-07T22:45:44.008Z,93582.78
2018-10-07T22:48:12.099Z,93587.30
2018-10-07T22:50:40.178Z,93588.60
2018-10-07T22:53:08.202Z,93590.84
2018-10-07T22:55:36.285Z,93587.61
2018-10-07T22:58:04.317Z,93586.95
2018-10-07T23:00:32.500Z,93584.79
2018-10-07T23:03:00.513Z,93580.59
2018-10-07T23:05:28.766Z,93582.44
2018-10-07T23:07:56.841Z,93580.03
2018-10-07T23:10:24.844Z,93580.67
2018-10-07T23:12:52.905Z,93574.58
2018-10-07T23:15:20.926Z,93582.23
2018-10-07T23:17:48.980Z,93579.80
2018-10-07T23:20:16.996Z,93576.50
2018-10-07T23:22:44.981Z,93577.72
2018-10-07T23:25:13.037Z,93576.42
2018-10-07T23:27:41.148Z,93574.30
2018-10-07T23:30:09.203Z,93572.03
2018-10-07T23:32:37.293Z,93574.54
2018-10-07T23:35:05.333Z,93573.05
2018-10-07T23:37:33.487Z,93575.47
2018-10-07T23:40:01.725Z,93572.31
2018-10-07T23:42:29.749Z,93570.20
2018-10-07T23:44:57.995Z,93572.86
2018-10-07T23:47:26.034Z,93584.05
2018-10-07T23:49:54.086Z,93583.84
2018-10-07T23:52:22.512Z,93575.41
2018-10-07T23:54:50.651Z,93584.00
2018-10-07T23:57:18.678Z,93577.51
2018-10-07T23:59:46.981Z,93577.45
